sensor_id;sensor_type;location;lat;lon;timestamp;pressure;altitude;pressure_sealevel;temperature;humidity
9139;BME280;4604;48.616;9.548;2024-02-28T00:01:50;96807.25;;;7.25;100.00
9139;BME280;4604;48.616;9.548;2024-02-28T00:04:19;96805.69;;;7.23;100.00
9139;BME280;4604;48.616;9.548;2024-02-28T00:06:45;96823.00;;;7.25;100.00
9139;BME280;4604;48.616;9.548;2024-02-28T00:09:12;96817.03;;;7.23;100.00
9139;BME280;4604;48.616;9.548;2024-02-28T00:11:42;96811.31;;;7.18;100.00
9139;BME280;4604;48.616;9.548;2024-02-28T00:14:09;96808.69;;;7.18;100.00
9139;BME280;4604;48.616;9.548;2024-02-28T00:16:39;96821.81;;;7.29;100.00
9139;BME280;4604;48.616;9.548;2024-02-28T00:19:08;96820.94;;;7.29;100.00
9139;BME280;4604;48.616;9.548;2024-02-28T00:21:38;96823.47;;;7.31;100.00
9139;BME280;4604;48.616;9.548;2024-02-28T00:24:07;96819.41;;;7.26;100.00
9139;BME280;4604;48.616;9.548;2024-02-28T00:26:34;96823.34;;;7.32;100.00
9139;BME280;4604;48.616;9.548;2024-02-28T00:29:00;96823.47;;;7.31;100.00
9139;BME280;4604;48.616;9.548;2024-02-28T00:31:27;96825.25;;;7.30;100.00
9139;BME280;4604;48.616;9.548;2024-02-28T00:33:54;96819.03;;;7.31;100.00
9139;BME280;4604;48.616;9.548;2024-02-28T00:36:20;96819.66;;;7.35;100.00
9139;BME280;4604;48.616;9.548;2024-02-28T00:38:48;96821.81;;;7.29;100.00
9139;BME280;4604;48.616;9.548;2024-02-28T00:41:15;96825.97;;;7.32;100.00
9139;BME280;4604;48.616;9.548;2024-02-28T00:43:42;96828.72;;;7.31;100.00
9139;BME280;4604;48.616;9.548;2024-02-28T00:46:08;96808.44;;;7.21;100.00
9139;BME280;4604;48.616;9.548;2024-02-28T00:48:37;96822.88;;;7.27;100.00
9139;BME280;4604;48.616;9.548;2024-02-28T00:51:04;96824.06;;;7.23;100.00
9139;BME280;4604;48.616;9.548;2024-02-28T00:53:31;96828.00;;;7.28;100.00
9139;BME280;4604;48.616;9.548;2024-02-28T00:55:59;96820.25;;;7.27;100.00
9139;BME280;4604;48.616;9.548;2024-02-28T00:58:26;96825.97;;;7.32;100.00
9139;BME280;4604;48.616;9.548;2024-02-28T01:00:55;96822.28;;;7.35;100.00
9139;BME280;4604;48.616;9.548;2024-02-28T01:03:22;96826.69;;;7.34;100.00
9139;BME280;4604;48.616;9.548;2024-02-28T01:05:49;96769.34;;;6.96;100.00
9139;BME280;4604;48.616;9.548;2024-02-28T01:08:18;96830.50;;;7.30;100.00
9139;BME280;4604;48.616;9.548;2024-02-28T01:10:45;96823.81;;;7.37;100.00
9139;BME280;4604;48.616;9.548;2024-02-28T01:13:13;96774.97;;;7.02;100.00
9139;BME280;4604;48.616;9.548;2024-02-28T01:15:40;96827.53;;;7.35;100.00
9139;BME280;4604;48.616;9.548;2024-02-28T01:18:07;96824.44;;;7.29;100.00
9139;BME280;4604;48.616;9.548;2024-02-28T01:20:33;96795.56;;;7.18;100.00
9139;BME280;4604;48.616;9.548;2024-02-28T01:23:00;96779.97;;;7.05;100.00
9139;BME280;4604;48.616;9.548;2024-02-28T01:25:27;96783.53;;;7.04;100.00
9139;BME280;4604;48.616;9.548;2024-02-28T01:27:58;96759.47;;;6.88;100.00
9139;BME280;4604;48.616;9.548;2024-02-28T01:30:26;96820.47;;;7.24;100.00
9139;BME280;4604;48.616;9.548;2024-02-28T01:32:59;96748.50;;;6.83;100.00
9139;BME280;4604;48.616;9.548;2024-02-28T01:35:28;96825.63;;;7.25;100.00
9139;BME280;4604;48.616;9.548;2024-02-28T01:38:03;96795.56;;;7.07;100.00
9139;BME280;4604;48.616;9.548;2024-02-28T01:40:29;96782.94;;;6.90;100.00
9139;BME280;4604;48.616;9.548;2024-02-28T01:43:03;96834.81;;;7.20;100.00
9139;BME280;4604;48.616;9.548;2024-02-28T01:45:31;96774.59;;;6.84;100.00
9139;BME280;4604;48.616;9.548;2024-02-28T01:48:04;96825.97;;;7.21;100.00
9139;BME280;4604;48.616;9.548;2024-02-28T01:50:49;96836.38;;;7.22;100.00
9139;BME280;4604;48.616;9.548;2024-02-28T01:53:21;96775.69;;;6.82;100.00
9139;BME280;4604;48.616;9.548;2024-02-28T01:55:56;96789.25;;;6.87;100.00
9139;BME280;4604;48.616;9.548;2024-02-28T01:58:28;96848.66;;;7.22;100.00
9139;BME280;4604;48.616;9.548;2024-02-28T02:01:08;96776.84;;;6.78;100.00
9139;BME280;4604;48.616;9.548;2024-02-28T02:03:36;96819.94;;;6.98;100.00
9139;BME280;4604;48.616;9.548;2024-02-28T02:06:07;96792.59;;;6.78;100.00
9139;BME280;4604;48.616;9.548;2024-02-28T02:08:41;96834.94;;;7.07;100.00
9139;BME280;4604;48.616;9.548;2024-02-28T02:11:23;96835.16;;;7.04;100.00
9139;BME280;4604;48.616;9.548;2024-02-28T02:14:02;96810.38;;;6.85;100.00
9139;BME280;4604;48.616;9.548;2024-02-28T02:16:36;96820.75;;;6.87;100.00
9139;BME280;4604;48.616;9.548;2024-02-28T02:25:24;96855.59;;;7.00;100.00
9139;BME280;4604;48.616;9.548;2024-02-28T02:28:16;96813.34;;;6.70;100.00
9139;BME280;4604;48.616;9.548;2024-02-28T02:30:52;96883.13;;;7.17;100.00
9139;BME280;4604;48.616;9.548;2024-02-28T02:33:21;96897.69;;;7.10;100.00
9139;BME280;4604;48.616;9.548;2024-02-28T02:35:48;96861.16;;;6.84;100.00
9139;BME280;4604;48.616;9.548;2024-02-28T02:38:14;96843.75;;;6.72;100.00
9139;BME280;4604;48.616;9.548;2024-02-28T02:40:43;96870.22;;;6.92;100.00
9139;BME280;4604;48.616;9.548;2024-02-28T02:43:16;96902.56;;;7.03;100.00
9139;BME280;4604;48.616;9.548;2024-02-28T02:45:43;96874.28;;;6.84;100.00
9139;BME280;4604;48.616;9.548;2024-02-28T02:48:11;96882.75;;;6.88;100.00
9139;BME280;4604;48.616;9.548;2024-02-28T02:50:37;96902.66;;;7.02;100.00
9139;BME280;4604;48.616;9.548;2024-02-28T02:53:04;96910.53;;;7.02;100.00
9139;BME280;4604;48.616;9.548;2024-02-28T02:55:33;96911.50;;;7.01;100.00
9139;BME280;4604;48.616;9.548;2024-02-28T02:58:01;96909.72;;;7.01;100.00
9139;BME280;4604;48.616;9.548;2024-02-28T03:00:28;96910.06;;;6.97;100.00
9139;BME280;4604;48.616;9.548;2024-02-28T03:02:54;96911.28;;;6.93;100.00
9139;BME280;4604;48.616;9.548;2024-02-28T03:05:21;96917.44;;;6.92;100.00
9139;BME280;4604;48.616;9.548;2024-02-28T03:07:48;96913.91;;;6.93;100.00
9139;BME280;4604;48.616;9.548;2024-02-28T03:10:15;96910.31;;;6.94;100.00
9139;BME280;4604;48.616;9.548;2024-02-28T03:12:44;96887.25;;;6.75;100.00
9139;BME280;4604;48.616;9.548;2024-02-28T03:15:18;96843.31;;;6.43;100.00
9139;BME280;4604;48.616;9.548;2024-02-28T03:17:48;96911.94;;;6.72;100.00
9139;BME280;4604;48.616;9.548;2024-02-28T03:20:15;96860.38;;;6.37;100.00
9139;BME280;4604;48.616;9.548;2024-02-28T03:22:42;96910.13;;;6.73;100.00
9139;BME280;4604;48.616;9.548;2024-02-28T03:25:12;96914.78;;;6.69;100.00
9139;BME280;4604;48.616;9.548;2024-02-28T03:30:46;96895.06;;;6.52;100.00
9139;BME280;4604;48.616;9.548;2024-02-28T03:33:39;96933.28;;;6.79;100.00
9139;BME280;4604;48.616;9.548;2024-02-28T03:36:30;96955.72;;;6.83;100.00
9139;BME280;4604;48.616;9.548;2024-02-28T03:39:41;96957.28;;;6.85;100.00
9139;BME280;4604;48.616;9.548;2024-02-28T03:42:29;96944.69;;;6.67;100.00
9139;BME280;4604;48.616;9.548;2024-02-28T03:45:39;96937.19;;;6.62;100.00
9139;BME280;4604;48.616;9.548;2024-02-28T03:48:23;96947.56;;;6.63;100.00
9139;BME280;4604;48.616;9.548;2024-02-28T03:50:57;96885.59;;;6.27;100.00
9139;BME280;4604;48.616;9.548;2024-02-28T03:53:38;96940.63;;;6.62;100.00
9139;BME280;4604;48.616;9.548;2024-02-28T03:56:21;96968.69;;;6.73;100.00
9139;BME280;4604;48.616;9.548;2024-02-28T03:58:51;96943.00;;;6.54;100.00
9139;BME280;4604;48.616;9.548;2024-02-28T04:01:29;96935.97;;;6.55;100.00
9139;BME280;4604;48.616;9.548;2024-02-28T04:03:57;96894.03;;;6.31;100.00
9139;BME280;4604;48.616;9.548;2024-02-28T04:06:27;96905.66;;;6.39;100.00
9139;BME280;4604;48.616;9.548;2024-02-28T04:08:54;96962.22;;;6.66;100.00
9139;BME280;4604;48.616;9.548;2024-02-28T04:11:29;96886.84;;;6.21;100.00
9139;BME280;4604;48.616;9.548;2024-02-28T04:14:10;96937.41;;;6.59;100.00
9139;BME280;4604;48.616;9.548;2024-02-28T04:16:43;96945.72;;;6.53;100.00
9139;BME280;4604;48.616;9.548;2024-02-28T04:19:11;96895.78;;;6.19;100.00
9139;BME280;4604;48.616;9.548;2024-02-28T04:21:44;96967.84;;;6.73;100.00
9139;BME280;4604;48.616;9.548;2024-02-28T04:24:11;96894.72;;;6.21;100.00
9139;BME280;4604;48.616;9.548;2024-02-28T04:26:52;96938.44;;;6.45;100.00
9139;BME280;4604;48.616;9.548;2024-02-28T04:29:19;96980.59;;;6.66;100.00
9139;BME280;4604;48.616;9.548;2024-02-28T04:31:46;96974.13;;;6.59;100.00
9139;BME280;4604;48.616;9.548;2024-02-28T04:34:14;96976.41;;;6.63;100.00
9139;BME280;4604;48.616;9.548;2024-02-28T04:36:40;96952.03;;;6.50;100.00
9139;BME280;4604;48.616;9.548;2024-02-28T04:39:07;96986.03;;;6.63;100.00
9139;BME280;4604;48.616;9.548;2024-02-28T04:41:34;96945.78;;;6.40;100.00
9139;BME280;4604;48.616;9.548;2024-02-28T04:44:00;96974.56;;;6.53;100.00
9139;BME280;4604;48.616;9.548;2024-02-28T04:46:28;96985.34;;;6.61;100.00
9139;BME280;4604;48.616;9.548;2024-02-28T04:48:54;96991.06;;;6.66;100.00
9139;BME280;4604;48.616;9.548;2024-02-28T04:51:22;96983.66;;;6.60;100.00
9139;BME280;4604;48.616;9.548;2024-02-28T04:53:49;96994.41;;;6.68;100.00
9139;BME280;4604;48.616;9.548;2024-02-28T04:56:15;97000.88;;;6.75;100.00
9139;BME280;4604;48.616;9.548;2024-02-28T04:58:42;96993.06;;;6.62;100.00
9139;BME280;4604;48.616;9.548;2024-02-28T05:01:09;96995.94;;;6.59;100.00
9139;BME280;4604;48.616;9.548;2024-02-28T05:03:35;96993.81;;;6.64;100.00
9139;BME280;4604;48.616;9.548;2024-02-28T05:06:02;96997.16;;;6.67;100.00
9139;BME280;4604;48.616;9.548;2024-02-28T05:08:30;97000.28;;;6.72;100.00
9139;BME280;4604;48.616;9.548;2024-02-28T05:10:57;97003.22;;;6.67;100.00
9139;BME280;4604;48.616;9.548;2024-02-28T05:13:23;97007.97;;;6.62;100.00
9139;BME280;4604;48.616;9.548;2024-02-28T05:15:50;97014.84;;;6.52;100.00
9139;BME280;4604;48.616;9.548;2024-02-28T05:18:17;96996.81;;;6.47;100.00
9139;BME280;4604;48.616;9.548;2024-02-28T05:20:43;97014.38;;;6.58;100.00
9139;BME280;4604;48.616;9.548;2024-02-28T05:23:10;97027.63;;;6.56;100.00
9139;BME280;4604;48.616;9.548;2024-02-28T05:25:41;96998.50;;;6.48;100.00
9139;BME280;4604;48.616;9.548;2024-02-28T05:28:08;97006.16;;;6.51;100.00
9139;BME280;4604;48.616;9.548;2024-02-28T05:30:45;97006.47;;;6.47;100.00
9139;BME280;4604;48.616;9.548;2024-02-28T05:33:17;97003.13;;;6.45;100.00
9139;BME280;4604;48.616;9.548;2024-02-28T05:35:47;97023.97;;;6.46;100.00
9139;BME280;4604;48.616;9.548;2024-02-28T05:38:14;97032.56;;;6.48;100.00
9139;BME280;4604;48.616;9.548;2024-02-28T05:40:42;97039.38;;;6.51;100.00
9139;BME280;4604;48.616;9.548;2024-02-28T05:43:09;97025.50;;;6.37;100.00
9139;BME280;4604;48.616;9.548;2024-02-28T05:45:36;97054.28;;;6.50;100.00
9139;BME280;4604;48.616;9.548;2024-02-28T05:48:02;97060.66;;;6.59;100.00
9139;BME280;4604;48.616;9.548;2024-02-28T05:50:29;97055.09;;;6.51;100.00
9139;BME280;4604;48.616;9.548;2024-02-28T05:52:58;97066.22;;;6.54;100.00
9139;BME280;4604;48.616;9.548;2024-02-28T05:55:24;97056.47;;;6.56;100.00
9139;BME280;4604;48.616;9.548;2024-02-28T05:57:52;97066.97;;;6.56;100.00
9139;BME280;4604;48.616;9.548;2024-02-28T06:00:19;97061.22;;;6.51;100.00
9139;BME280;4604;48.616;9.548;2024-02-28T06:02:46;97066.09;;;6.56;100.00
9139;BME280;4604;48.616;9.548;2024-02-28T06:05:12;97072.53;;;6.52;100.00
9139;BME280;4604;48.616;9.548;2024-02-28T06:07:39;97069.72;;;6.42;100.00
9139;BME280;4604;48.616;9.548;2024-02-28T06:10:06;97076.84;;;6.40;100.00
9139;BME280;4604;48.616;9.548;2024-02-28T06:12:33;97081.38;;;6.38;100.00
9139;BME280;4604;48.616;9.548;2024-02-28T06:15:03;97071.84;;;6.37;100.00
9139;BME280;4604;48.616;9.548;2024-02-28T06:17:30;97089.97;;;6.40;100.00
9139;BME280;4604;48.616;9.548;2024-02-28T06:19:57;97081.88;;;6.43;100.00
9139;BME280;4604;48.616;9.548;2024-02-28T06:22:26;97086.78;;;6.48;100.00
9139;BME280;4604;48.616;9.548;2024-02-28T06:24:53;97080.09;;;6.43;100.00
9139;BME280;4604;48.616;9.548;2024-02-28T06:27:19;97097.28;;;6.48;100.00
9139;BME280;4604;48.616;9.548;2024-02-28T06:29:46;97092.25;;;6.45;100.00
9139;BME280;4604;48.616;9.548;2024-02-28T06:32:15;97098.88;;;6.37;100.00
9139;BME280;4604;48.616;9.548;2024-02-28T06:34:43;97103.31;;;6.37;100.00
9139;BME280;4604;48.616;9.548;2024-02-28T06:37:10;97110.09;;;6.39;100.00
9139;BME280;4604;48.616;9.548;2024-02-28T06:39:37;97102.34;;;6.38;100.00
9139;BME280;4604;48.616;9.548;2024-02-28T06:42:04;97115.22;;;6.41;100.00
9139;BME280;4604;48.616;9.548;2024-02-28T06:44:30;97114.06;;;6.45;100.00
9139;BME280;4604;48.616;9.548;2024-02-28T06:46:57;97119.41;;;6.56;100.00
9139;BME280;4604;48.616;9.548;2024-02-28T06:49:25;97122.03;;;6.56;100.00
9139;BME280;4604;48.616;9.548;2024-02-28T06:51:52;97119.53;;;6.42;100.00
9139;BME280;4604;48.616;9.548;2024-02-28T06:54:20;97138.41;;;6.47;100.00
9139;BME280;4604;48.616;9.548;2024-02-28T06:56:46;97120.91;;;6.35;100.00
9139;BME280;4604;48.616;9.548;2024-02-28T06:59:13;97130.94;;;6.41;100.00
9139;BME280;4604;48.616;9.548;2024-02-28T07:01:40;97143.94;;;6.55;100.00
9139;BME280;4604;48.616;9.548;2024-02-28T07:04:06;97120.28;;;6.31;100.00
9139;BME280;4604;48.616;9.548;2024-02-28T07:06:34;97150.03;;;6.43;100.00
9139;BME280;4604;48.616;9.548;2024-02-28T07:09:01;97156.44;;;6.52;100.00
9139;BME280;4604;48.616;9.548;2024-02-28T07:11:28;97162.81;;;6.48;100.00
9139;BME280;4604;48.616;9.548;2024-02-28T07:13:55;97139.28;;;6.09;100.00
9139;BME280;4604;48.616;9.548;2024-02-28T07:16:23;97173.75;;;6.29;100.00
9139;BME280;4604;48.616;9.548;2024-02-28T07:18:49;97178.91;;;6.30;100.00
9139;BME280;4604;48.616;9.548;2024-02-28T07:21:16;97174.72;;;6.28;100.00
9139;BME280;4604;48.616;9.548;2024-02-28T07:23:44;97173.88;;;6.27;100.00
9139;BME280;4604;48.616;9.548;2024-02-28T07:26:14;97175.03;;;6.23;100.00
9139;BME280;4604;48.616;9.548;2024-02-28T07:28:41;97175.84;;;6.24;100.00
9139;BME280;4604;48.616;9.548;2024-02-28T07:31:14;97182.69;;;6.39;100.00
9139;BME280;4604;48.616;9.548;2024-02-28T07:33:41;97170.78;;;6.46;100.00
9139;BME280;4604;48.616;9.548;2024-02-28T07:36:07;97176.56;;;6.38;100.00
9139;BME280;4604;48.616;9.548;2024-02-28T07:38:35;97165.78;;;6.30;100.00
9139;BME280;4604;48.616;9.548;2024-02-28T07:41:03;97183.78;;;6.48;100.00
9139;BME280;4604;48.616;9.548;2024-02-28T07:43:30;97183.78;;;6.48;100.00
9139;BME280;4604;48.616;9.548;2024-02-28T07:46:02;97178.03;;;6.42;100.00
9139;BME280;4604;48.616;9.548;2024-02-28T07:48:29;97182.75;;;6.50;100.00
9139;BME280;4604;48.616;9.548;2024-02-28T07:50:56;97179.28;;;6.50;100.00
9139;BME280;4604;48.616;9.548;2024-02-28T07:53:22;97181.56;;;6.67;100.00
9139;BME280;4604;48.616;9.548;2024-02-28T07:55:49;97183.38;;;6.41;100.00
9139;BME280;4604;48.616;9.548;2024-02-28T07:58:17;97191.56;;;6.36;100.00
9139;BME280;4604;48.616;9.548;2024-02-28T08:00:44;97193.88;;;6.41;100.00
9139;BME280;4604;48.616;9.548;2024-02-28T08:03:11;97187.47;;;6.45;100.00
9139;BME280;4604;48.616;9.548;2024-02-28T08:05:37;97189.47;;;6.54;100.00
9139;BME280;4604;48.616;9.548;2024-02-28T08:08:04;97189.97;;;6.59;100.00
9139;BME280;4604;48.616;9.548;2024-02-28T08:10:31;97196.16;;;6.71;100.00
9139;BME280;4604;48.616;9.548;2024-02-28T08:12:58;97190.94;;;6.82;100.00
9139;BME280;4604;48.616;9.548;2024-02-28T08:15:26;97176.22;;;6.69;100.00
9139;BME280;4604;48.616;9.548;2024-02-28T08:17:53;97196.00;;;6.85;100.00
9139;BME280;4604;48.616;9.548;2024-02-28T08:20:20;97192.94;;;6.92;100.00
9139;BME280;4604;48.616;9.548;2024-02-28T08:22:46;97206.88;;;6.92;100.00
9139;BME280;4604;48.616;9.548;2024-02-28T08:25:13;97203.75;;;6.87;100.00
9139;BME280;4604;48.616;9.548;2024-02-28T08:27:41;97207.88;;;6.78;100.00
9139;BME280;4604;48.616;9.548;2024-02-28T08:30:08;97214.50;;;6.71;100.00
9139;BME280;4604;48.616;9.548;2024-02-28T08:32:37;97211.00;;;6.83;100.00
9139;BME280;4604;48.616;9.548;2024-02-28T08:35:06;97217.63;;;6.76;100.00
9139;BME280;4604;48.616;9.548;2024-02-28T08:37:33;97221.75;;;6.55;100.00
9139;BME280;4604;48.616;9.548;2024-02-28T08:39:59;97218.69;;;6.74;100.00
9139;BME280;4604;48.616;9.548;2024-02-28T08:42:26;97228.13;;;6.76;100.00
9139;BME280;4604;48.616;9.548;2024-02-28T08:44:53;97219.47;;;6.87;99.42
9139;BME280;4604;48.616;9.548;2024-02-28T08:47:22;97231.34;;;6.80;100.00
9139;BME280;4604;48.616;9.548;2024-02-28T08:49:51;97226.06;;;6.69;100.00
9139;BME280;4604;48.616;9.548;2024-02-28T08:52:18;97220.91;;;6.67;100.00
9139;BME280;4604;48.616;9.548;2024-02-28T08:54:44;97220.91;;;6.67;100.00
9139;BME280;4604;48.616;9.548;2024-02-28T08:57:11;97223.94;;;6.74;100.00
9139;BME280;4604;48.616;9.548;2024-02-28T08:59:37;97226.44;;;6.75;100.00
9139;BME280;4604;48.616;9.548;2024-02-28T09:02:05;97226.09;;;6.80;100.00
9139;BME280;4604;48.616;9.548;2024-02-28T09:04:32;97231.06;;;6.72;100.00
9139;BME280;4604;48.616;9.548;2024-02-28T09:07:00;97227.81;;;6.81;100.00
9139;BME280;4604;48.616;9.548;2024-02-28T09:09:26;97225.78;;;6.84;99.47
9139;BME280;4604;48.616;9.548;2024-02-28T09:11:54;97234.41;;;6.86;100.00
9139;BME280;4604;48.616;9.548;2024-02-28T09:14:20;97234.09;;;6.78;100.00
9139;BME280;4604;48.616;9.548;2024-02-28T09:16:47;97237.59;;;6.66;100.00
9139;BME280;4604;48.616;9.548;2024-02-28T09:19:14;97238.50;;;6.78;100.00
9139;BME280;4604;48.616;9.548;2024-02-28T09:21:40;97243.88;;;6.76;100.00
9139;BME280;4604;48.616;9.548;2024-02-28T09:24:08;97242.59;;;6.82;100.00
9139;BME280;4604;48.616;9.548;2024-02-28T09:26:38;97237.84;;;6.87;100.00
9139;BME280;4604;48.616;9.548;2024-02-28T09:29:05;97242.34;;;6.85;100.00
9139;BME280;4604;48.616;9.548;2024-02-28T09:31:32;97241.53;;;6.84;99.79
9139;BME280;4604;48.616;9.548;2024-02-28T09:33:58;97244.28;;;6.83;100.00
9139;BME280;4604;48.616;9.548;2024-02-28T09:36:28;97245.13;;;6.83;100.00
9139;BME280;4604;48.616;9.548;2024-02-28T09:38:54;97245.13;;;6.83;99.35
9139;BME280;4604;48.616;9.548;2024-02-28T09:41:23;97239.63;;;6.86;99.36
9139;BME280;4604;48.616;9.548;2024-02-28T09:43:52;97228.25;;;6.62;99.68
9139;BME280;4604;48.616;9.548;2024-02-28T09:46:19;97245.13;;;6.83;99.38
9139;BME280;4604;48.616;9.548;2024-02-28T09:48:47;97245.13;;;6.83;99.95
9139;BME280;4604;48.616;9.548;2024-02-28T09:51:18;97246.75;;;6.97;97.97
9139;BME280;4604;48.616;9.548;2024-02-28T09:53:45;97248.75;;;6.94;98.37
9139;BME280;4604;48.616;9.548;2024-02-28T09:56:12;97259.75;;;6.99;98.30
9139;BME280;4604;48.616;9.548;2024-02-28T09:58:40;97260.31;;;6.91;99.40
9139;BME280;4604;48.616;9.548;2024-02-28T10:01:08;97250.38;;;6.71;99.53
9139;BME280;4604;48.616;9.548;2024-02-28T10:03:39;97257.41;;;6.83;99.20
9139;BME280;4604;48.616;9.548;2024-02-28T10:06:06;97265.47;;;6.93;98.55
9139;BME280;4604;48.616;9.548;2024-02-28T10:08:32;97270.56;;;6.94;98.64
9139;BME280;4604;48.616;9.548;2024-02-28T10:11:00;97270.53;;;7.07;96.96
9139;BME280;4604;48.616;9.548;2024-02-28T10:13:27;97274.66;;;6.98;98.28
9139;BME280;4604;48.616;9.548;2024-02-28T10:15:55;97283.19;;;6.89;98.70
9139;BME280;4604;48.616;9.548;2024-02-28T10:18:21;97281.63;;;6.86;98.77
9139;BME280;4604;48.616;9.548;2024-02-28T10:20:48;97284.22;;;6.99;98.47
9139;BME280;4604;48.616;9.548;2024-02-28T10:23:16;97282.03;;;6.93;98.35
9139;BME280;4604;48.616;9.548;2024-02-28T10:25:43;97285.41;;;6.95;97.34
9139;BME280;4604;48.616;9.548;2024-02-28T10:28:10;97277.91;;;7.02;98.46
9139;BME280;4604;48.616;9.548;2024-02-28T10:30:39;97285.25;;;7.10;98.56
9139;BME280;4604;48.616;9.548;2024-02-28T10:33:11;97272.75;;;7.13;95.69
9139;BME280;4604;48.616;9.548;2024-02-28T10:35:39;97280.84;;;7.10;96.09
9139;BME280;4604;48.616;9.548;2024-02-28T10:38:06;97278.59;;;7.17;95.41
9139;BME280;4604;48.616;9.548;2024-02-28T10:40:32;97287.00;;;7.22;95.28
9139;BME280;4604;48.616;9.548;2024-02-28T10:42:59;97277.44;;;7.21;95.96
9139;BME280;4604;48.616;9.548;2024-02-28T10:45:29;97291.88;;;7.39;95.76
9139;BME280;4604;48.616;9.548;2024-02-28T10:47:57;97286.03;;;7.60;92.33
9139;BME280;4604;48.616;9.548;2024-02-28T10:50:24;97286.34;;;7.55;93.94
9139;BME280;4604;48.616;9.548;2024-02-28T10:52:52;97277.03;;;7.51;93.85
9139;BME280;4604;48.616;9.548;2024-02-28T10:55:21;97295.47;;;7.62;92.54
9139;BME280;4604;48.616;9.548;2024-02-28T10:57:53;97300.84;;;7.61;91.70
9139;BME280;4604;48.616;9.548;2024-02-28T11:00:22;97303.81;;;7.56;91.56
9139;BME280;4604;48.616;9.548;2024-02-28T11:02:49;97306.31;;;7.58;91.55
9139;BME280;4604;48.616;9.548;2024-02-28T11:05:15;97311.56;;;7.58;92.25
9139;BME280;4604;48.616;9.548;2024-02-28T11:07:44;97311.78;;;7.55;93.14
9139;BME280;4604;48.616;9.548;2024-02-28T11:10:12;97309.53;;;7.37;93.04
9139;BME280;4604;48.616;9.548;2024-02-28T11:12:38;97302.78;;;7.46;92.51
9139;BME280;4604;48.616;9.548;2024-02-28T11:15:06;97305.19;;;7.49;92.82
9139;BME280;4604;48.616;9.548;2024-02-28T11:17:42;97311.50;;;7.46;93.34
9139;BME280;4604;48.616;9.548;2024-02-28T11:20:12;97298.56;;;7.43;92.97
9139;BME280;4604;48.616;9.548;2024-02-28T11:22:39;97299.22;;;7.47;93.05
9139;BME280;4604;48.616;9.548;2024-02-28T11:25:08;97306.06;;;7.37;94.20
9139;BME280;4604;48.616;9.548;2024-02-28T11:27:45;97306.59;;;7.42;93.62
9139;BME280;4604;48.616;9.548;2024-02-28T11:30:13;97307.47;;;7.29;94.37
9139;BME280;4604;48.616;9.548;2024-02-28T11:32:39;97281.94;;;7.32;94.51
9139;BME280;4604;48.616;9.548;2024-02-28T11:35:07;97303.41;;;7.49;93.91
9139;BME280;4604;48.616;9.548;2024-02-28T11:37:34;97301.72;;;7.48;94.19
9139;BME280;4604;48.616;9.548;2024-02-28T11:40:00;97283.69;;;7.44;93.33
9139;BME280;4604;48.616;9.548;2024-02-28T11:42:28;97310.41;;;7.62;93.23
9139;BME280;4604;48.616;9.548;2024-02-28T11:44:55;97307.31;;;7.68;92.66
9139;BME280;4604;48.616;9.548;2024-02-28T11:47:23;97310.56;;;7.71;92.43
9139;BME280;4604;48.616;9.548;2024-02-28T11:49:50;97304.63;;;7.57;92.66
9139;BME280;4604;48.616;9.548;2024-02-28T11:52:16;97305.53;;;7.44;93.63
9139;BME280;4604;48.616;9.548;2024-02-28T11:54:44;97318.66;;;7.44;94.43
9139;BME280;4604;48.616;9.548;2024-02-28T11:57:11;97314.66;;;7.39;95.13
9139;BME280;4604;48.616;9.548;2024-02-28T11:59:40;97318.69;;;7.32;95.15
9139;BME280;4604;48.616;9.548;2024-02-28T12:02:11;97311.25;;;7.25;95.49
9139;BME280;4604;48.616;9.548;2024-02-28T12:04:38;97321.66;;;7.27;95.97
9139;BME280;4604;48.616;9.548;2024-02-28T12:07:05;97316.53;;;7.13;97.07
9139;BME280;4604;48.616;9.548;2024-02-28T12:09:32;97319.47;;;7.08;97.79
9139;BME280;4604;48.616;9.548;2024-02-28T12:12:00;97317.03;;;7.18;98.24
9139;BME280;4604;48.616;9.548;2024-02-28T12:14:27;97318.19;;;7.14;98.57
9139;BME280;4604;48.616;9.548;2024-02-28T12:16:57;97314.34;;;7.43;95.93
9139;BME280;4604;48.616;9.548;2024-02-28T12:19:24;97295.44;;;7.01;97.17
9139;BME280;4604;48.616;9.548;2024-02-28T12:21:50;97309.19;;;7.05;98.52
9139;BME280;4604;48.616;9.548;2024-02-28T12:24:20;97312.72;;;7.17;98.03
9139;BME280;4604;48.616;9.548;2024-02-28T12:26:50;97312.94;;;7.14;98.85
9139;BME280;4604;48.616;9.548;2024-02-28T12:29:18;97259.38;;;6.79;98.86
9139;BME280;4604;48.616;9.548;2024-02-28T12:31:44;97309.25;;;7.16;98.69
9139;BME280;4604;48.616;9.548;2024-02-28T12:34:12;97283.16;;;7.02;98.88
9139;BME280;4604;48.616;9.548;2024-02-28T12:36:40;97310.97;;;7.17;98.47
9139;BME280;4604;48.616;9.548;2024-02-28T12:39:07;97304.44;;;7.23;97.62
9139;BME280;4604;48.616;9.548;2024-02-28T12:41:36;97274.47;;;6.89;97.79
9139;BME280;4604;48.616;9.548;2024-02-28T12:44:04;97286.28;;;7.20;97.49
9139;BME280;4604;48.616;9.548;2024-02-28T12:46:30;97300.47;;;7.17;97.60
9139;BME280;4604;48.616;9.548;2024-02-28T12:48:57;97301.97;;;6.96;98.59
9139;BME280;4604;48.616;9.548;2024-02-28T12:51:38;97306.56;;;7.05;97.49
9139;BME280;4604;48.616;9.548;2024-02-28T12:54:06;97306.78;;;6.89;98.12
9139;BME280;4604;48.616;9.548;2024-02-28T12:56:33;97304.81;;;6.67;100.00
9139;BME280;4604;48.616;9.548;2024-02-28T12:59:00;97290.25;;;6.50;100.00
9139;BME280;4604;48.616;9.548;2024-02-28T13:01:27;97291.59;;;6.56;100.00
9139;BME280;4604;48.616;9.548;2024-02-28T13:03:54;97301.78;;;6.73;100.00
9139;BME280;4604;48.616;9.548;2024-02-28T13:06:21;97292.22;;;6.72;100.00
9139;BME280;4604;48.616;9.548;2024-02-28T13:08:49;97299.38;;;6.83;100.00
9139;BME280;4604;48.616;9.548;2024-02-28T13:11:18;97296.72;;;6.96;99.49
9139;BME280;4604;48.616;9.548;2024-02-28T13:13:46;97295.47;;;6.89;99.77
9139;BME280;4604;48.616;9.548;2024-02-28T13:16:12;97283.59;;;6.96;99.14
9139;BME280;4604;48.616;9.548;2024-02-28T13:18:39;97299.03;;;6.88;98.08
9139;BME280;4604;48.616;9.548;2024-02-28T13:21:06;97300.63;;;6.90;98.72
9139;BME280;4604;48.616;9.548;2024-02-28T13:23:33;97288.81;;;7.08;97.54
9139;BME280;4604;48.616;9.548;2024-02-28T13:26:01;97277.81;;;7.03;98.01
9139;BME280;4604;48.616;9.548;2024-02-28T13:28:28;97282.66;;;6.97;98.24
9139;BME280;4604;48.616;9.548;2024-02-28T13:30:56;97282.28;;;7.27;96.83
9139;BME280;4604;48.616;9.548;2024-02-28T13:33:23;97290.00;;;7.28;96.35
9139;BME280;4604;48.616;9.548;2024-02-28T13:35:50;97296.31;;;7.26;97.23
9139;BME280;4604;48.616;9.548;2024-02-28T13:38:18;97295.50;;;7.25;97.66
9139;BME280;4604;48.616;9.548;2024-02-28T13:40:45;97285.28;;;7.34;96.77
9139;BME280;4604;48.616;9.548;2024-02-28T13:43:13;97278.41;;;7.20;97.36